Ramsbury, United Kingdom
Current Conditions -  °F | °C
As of 8:58 AM on Saturday 25 Oct 2014 (Local Time) from EGVA Reporting Station
Broken Clouds Broken Clouds  
Wind Chill: 48°   Ceiling: 4600
Heat Index: 49°   Visibility: 6mi
Dew Point: 48°   Wind: 5mph
Humidity: 95%   Direction: 210°SSW
Pressure: 30.03"   Gusts: NA
Location:  51.44°N, 1.6°W
Report Text: EGVA 250758Z AUTO 21004KT 9999 BKN046 10/09 A3003 RMK AO2 SLP174 P2400 T00970090
Loading
Personal Weather Stations






























Interactive Weather Map
Tropical Storm Tracking
New forecast layout! Learn more

10-Day Weather Forecast

Advertisements
Track Severe Weather on mobile